Time;durP1;ratioP1;P1;durP2;ratioP2;P2;SDS_P1;SDS_P2;PMS_P1;PMS_P2;Temp;Humidity;BMP_temperature;BMP_pressure;BME280_temperature;BME280_humidity;BME280_pressure;Samples;Min_cycle;Max_cycle;Signal;HPM_P1;HPM_P2
2021/06/06 00:02:03;;;;;;;531.40;431.40;;;;;;;;;;5025177;28;20074;-84
2021/06/06 00:04:29;;;;;;;522.25;421.55;;;;;;;;;;5046638;28;20071;-84
2021/06/06 00:06:58;;;;;;;519.50;414.50;;;;;;;;;;5008952;28;20485;-84
2021/06/06 00:09:24;;;;;;;528.13;422.15;;;;;;;;;;5041040;28;20124;-86
2021/06/06 00:11:52;;;;;;;536.00;430.70;;;;;;;;;;5013687;28;20030;-84
2021/06/06 00:14:37;;;;;;;535.53;427.45;;;;;;;;;;5036206;28;20033;-86
2021/06/06 00:17:27;;;;;;;532.53;427.33;;;;;;;;;;5048781;28;20025;-85
2021/06/06 00:19:53;;;;;;;527.05;408.33;;;;;;;;;;5023301;28;20716;-85
2021/06/06 00:22:19;;;;;;;525.83;417.17;;;;;;;;;;5047118;28;20185;-84
2021/06/06 00:24:45;;;;;;;536.05;428.27;;;;;;;;;;5042474;28;20026;-86
2021/06/06 00:27:11;;;;;;;516.70;406.98;;;;;;;;;;5024725;28;20854;-85
2021/06/06 00:32:56;;;;;;;523.55;409.05;;;;;;;;;;5032696;28;20036;-85
2021/06/06 00:35:23;;;;;;;525.03;415.48;;;;;;;;;;5016740;28;20034;-85
2021/06/06 00:37:49;;;;;;;530.28;422.13;;;;;;;;;;5013779;28;20045;-85
2021/06/06 00:40:17;;;;;;;550.78;445.23;;;;;;;;;;5014803;28;20032;-85
2021/06/06 00:42:43;;;;;;;526.03;423.92;;;;;;;;;;5019926;28;20190;-86
2021/06/06 00:45:11;;;;;;;539.08;431.00;;;;;;;;;;5049574;28;20028;-83
2021/06/06 00:47:37;;;;;;;548.47;436.42;;;;;;;;;;5046776;28;20033;-85
2021/06/06 00:50:07;;;;;;;533.15;425.02;;;;;;;;;;5049205;28;20040;-84
2021/06/06 00:52:50;;;;;;;796.55;666.75;;;;;;;;;;5052939;28;20045;-86
2021/06/06 00:55:17;;;;;;;846.42;755.35;;;;;;;;;;5063622;28;20029;-85
2021/06/06 00:57:43;;;;;;;808.58;709.38;;;;;;;;;;5053511;28;20033;-85
2021/06/06 01:00:12;;;;;;;749.47;634.75;;;;;;;;;;5047221;28;20531;-85
2021/06/06 01:02:40;;;;;;;738.08;623.10;;;;;;;;;;5051455;28;20361;-85
2021/06/06 01:05:42;;;;;;;751.72;637.85;;;;;;;;;;5062096;28;20071;-84
2021/06/06 01:08:09;;;;;;;752.25;638.72;;;;;;;;;;4980091;28;20094;-84
2021/06/06 01:10:36;;;;;;;512.55;403.27;;;;;;;;;;5042401;28;20036;-85
2021/06/06 01:13:08;;;;;;;528.58;421.65;;;;;;;;;;5069483;28;20115;-85
2021/06/06 01:15:37;;;;;;;620.88;492.73;;;;;;;;;;5051860;28;20509;-85
2021/06/06 01:18:23;;;;;;;521.88;417.17;;;;;;;;;;5039019;28;20028;-83
2021/06/06 01:21:08;;;;;;;517.90;413.38;;;;;;;;;;5048699;28;20025;-86
2021/06/06 01:23:37;;;;;;;521.63;414.75;;;;;;;;;;5056160;28;20031;-83
2021/06/06 01:32:14;;;;;;;585.72;467.25;;;;;;;;;;5058348;28;20083;-83
2021/06/06 01:34:41;;;;;;;550.88;438.02;;;;;;;;;;5048461;28;20017;-85
2021/06/06 01:37:15;;;;;;;570.17;454.33;;;;;;;;;;5071261;28;20029;-84
2021/06/06 01:39:45;;;;;;;572.45;457.67;;;;;;;;;;5056224;28;20119;-84
2021/06/06 01:42:30;;;;;;;578.78;465.70;;;;;;;;;;5060943;28;20029;-84
2021/06/06 01:44:58;;;;;;;555.17;437.70;;;;;;;;;;5050921;28;20136;-84
2021/06/06 01:47:26;;;;;;;550.25;442.95;;;;;;;;;;5058046;28;20100;-81
2021/06/06 01:49:54;;;;;;;553.78;434.42;;;;;;;;;;5055128;28;20029;-83
2021/06/06 01:52:22;;;;;;;558.28;449.48;;;;;;;;;;5054275;28;20021;-83
2021/06/06 01:54:48;;;;;;;564.63;451.27;;;;;;;;;;5060453;28;20366;-83
2021/06/06 01:57:17;;;;;;;563.10;450.30;;;;;;;;;;5049305;28;20067;-83
2021/06/06 01:59:46;;;;;;;551.15;438.60;;;;;;;;;;5057116;28;20039;-84
2021/06/06 02:02:12;;;;;;;559.00;438.52;;;;;;;;;;5047793;28;20394;-85
2021/06/06 02:04:39;;;;;;;661.70;538.45;;;;;;;;;;5054668;28;20040;-83
2021/06/06 02:07:10;;;;;;;576.55;462.48;;;;;;;;;;5046936;28;20040;-83
2021/06/06 02:09:35;;;;;;;;;;;;;;;;;;5063594;28;20037;-82
2021/06/06 02:12:03;;;;;;;607.90;470.33;;;;;;;;;;5062558;28;20443;-83
2021/06/06 02:14:31;;;;;;;615.55;485.98;;;;;;;;;;5062836;28;20047;-84
2021/06/06 02:16:59;;;;;;;625.40;490.15;;;;;;;;;;5057404;28;20024;-84
2021/06/06 02:19:26;;;;;;;601.78;479.75;;;;;;;;;;5054256;28;20017;-82
2021/06/06 02:21:53;;;;;;;620.90;496.83;;;;;;;;;;5050338;28;20476;-83
2021/06/06 02:24:20;;;;;;;588.72;477.88;;;;;;;;;;5018552;28;20049;-83
2021/06/06 02:27:24;;;;;;;598.88;489.83;;;;;;;;;;5050195;28;20033;-83
2021/06/06 02:29:54;;;;;;;608.40;482.40;;;;;;;;;;4963836;28;20483;-82
2021/06/06 02:32:26;;;;;;;607.72;495.05;;;;;;;;;;4974757;28;20037;-83
2021/06/06 02:34:58;;;;;;;596.80;472.40;;;;;;;;;;5017681;28;20087;-83
2021/06/06 02:37:43;;;;;;;594.80;463.52;;;;;;;;;;5048007;28;20553;-83
2021/06/06 02:40:12;;;;;;;599.53;480.63;;;;;;;;;;5054605;28;20033;-82
2021/06/06 02:42:41;;;;;;;581.83;461.77;;;;;;;;;;5054375;28;20040;-83
2021/06/06 02:45:12;;;;;;;583.42;458.58;;;;;;;;;;5051235;28;20041;-82
2021/06/06 02:47:53;;;;;;;600.63;480.77;;;;;;;;;;5052942;28;20039;-85
2021/06/06 02:50:23;;;;;;;644.28;523.25;;;;;;;;;;5054238;28;20392;-83
2021/06/06 02:52:52;;;;;;;682.20;555.00;;;;;;;;;;5051828;28;20017;-83
2021/06/06 02:55:21;;;;;;;594.28;470.85;;;;;;;;;;5064563;28;20021;-82
2021/06/06 02:58:10;;;;;;;650.50;523.30;;;;;;;;;;5056330;28;20112;-84
2021/06/06 03:00:41;;;;;;;602.53;485.27;;;;;;;;;;5056610;28;20033;-84
2021/06/06 03:03:10;;;;;;;575.70;450.85;;;;;;;;;;5053450;28;20025;-83
2021/06/06 03:05:36;;;;;;;564.65;442.70;;;;;;;;;;5050198;28;20033;-82
2021/06/06 03:08:04;;;;;;;602.25;470.90;;;;;;;;;;5071952;28;20035;-83
2021/06/06 03:10:32;;;;;;;586.97;477.48;;;;;;;;;;5060133;28;20028;-83
2021/06/06 03:13:02;;;;;;;608.22;487.67;;;;;;;;;;5055805;28;20032;-83
2021/06/06 03:15:30;;;;;;;633.78;506.02;;;;;;;;;;5050769;28;20035;-83
2021/06/06 03:17:57;;;;;;;626.88;497.75;;;;;;;;;;5045118;28;20025;-81
2021/06/06 03:20:32;;;;;;;616.63;495.40;;;;;;;;;;5037769;28;20028;-83
2021/06/06 03:22:59;;;;;;;594.10;462.38;;;;;;;;;;5037931;28;20389;-82
2021/06/06 03:25:31;;;;;;;586.88;467.50;;;;;;;;;;5051287;28;20115;-83
2021/06/06 03:27:57;;;;;;;590.08;471.10;;;;;;;;;;5056022;28;20483;-82
2021/06/06 03:30:45;;;;;;;628.72;505.95;;;;;;;;;;5050216;28;20423;-82
2021/06/06 03:33:13;;;;;;;660.97;530.05;;;;;;;;;;5052971;28;20468;-82
2021/06/06 03:35:39;;;;;;;650.70;526.97;;;;;;;;;;5047898;28;20143;-82
2021/06/06 03:38:05;;;;;;;581.70;463.88;;;;;;;;;;5060824;28;20717;-82
2021/06/06 03:40:35;;;;;;;695.10;535.30;;;;;;;;;;5060706;28;20509;-83
2021/06/06 03:43:15;;;;;;;674.90;546.90;;;;;;;;;;5048909;28;20484;-82
2021/06/06 03:45:41;;;;;;;662.28;529.50;;;;;;;;;;5052151;28;20055;-84
2021/06/06 03:48:07;;;;;;;629.85;501.48;;;;;;;;;;5060048;28;20029;-83
2021/06/06 03:50:36;;;;;;;663.03;527.30;;;;;;;;;;5059422;28;20075;-82
2021/06/06 03:53:03;;;;;;;635.83;504.83;;;;;;;;;;5051985;28;20469;-82
2021/06/06 03:55:34;;;;;;;661.17;531.00;;;;;;;;;;5063544;28;20469;-83
2021/06/06 03:58:00;;;;;;;594.85;475.25;;;;;;;;;;5051455;28;20490;-82
2021/06/06 04:00:34;;;;;;;666.50;530.92;;;;;;;;;;5053139;28;20025;-83
2021/06/06 04:03:01;;;;;;;682.25;553.30;;;;;;;;;;5053424;28;20029;-82
2021/06/06 04:05:27;;;;;;;682.38;543.67;;;;;;;;;;5070935;28;20479;-82
2021/06/06 04:07:54;;;;;;;686.47;555.05;;;;;;;;;;5059787;28;20033;-82
2021/06/06 04:10:21;;;;;;;657.80;527.65;;;;;;;;;;5054569;28;20245;-83
2021/06/06 04:12:47;;;;;;;704.20;585.47;;;;;;;;;;5070014;28;20024;-82
2021/06/06 04:15:13;;;;;;;653.05;533.95;;;;;;;;;;5062640;28;20117;-82
2021/06/06 04:17:40;;;;;;;676.92;551.45;;;;;;;;;;5045567;28;20029;-82
2021/06/06 04:20:13;;;;;;;688.13;576.92;;;;;;;;;;5053538;28;20040;-83
2021/06/06 04:22:39;;;;;;;668.03;540.78;;;;;;;;;;5050323;28;20167;-82
2021/06/06 04:25:06;;;;;;;673.22;549.60;;;;;;;;;;5053649;28;20857;-82
2021/06/06 04:27:32;;;;;;;683.97;559.30;;;;;;;;;;5063491;28;20035;-83
2021/06/06 04:29:59;;;;;;;704.55;578.83;;;;;;;;;;5056017;28;20700;-82
2021/06/06 04:32:40;;;;;;;686.92;561.00;;;;;;;;;;5067123;28;20029;-83
2021/06/06 04:35:07;;;;;;;688.05;559.70;;;;;;;;;;5054424;28;20028;-82
2021/06/06 04:37:33;;;;;;;680.80;556.17;;;;;;;;;;5060230;28;20116;-82
2021/06/06 04:39:59;;;;;;;714.55;590.28;;;;;;;;;;5045312;28;20393;-83
2021/06/06 04:42:25;;;;;;;713.20;587.53;;;;;;;;;;5039885;28;20052;-82
2021/06/06 04:44:51;;;;;;;711.75;587.40;;;;;;;;;;5054141;28;20075;-82
2021/06/06 04:47:17;;;;;;;685.58;558.22;;;;;;;;;;5057354;28;20033;-81
2021/06/06 04:49:44;;;;;;;694.45;573.60;;;;;;;;;;5036894;28;20419;-83
2021/06/06 04:52:12;;;;;;;685.33;565.90;;;;;;;;;;5038906;28;20362;-82
2021/06/06 04:54:38;;;;;;;675.63;553.55;;;;;;;;;;5062498;28;20028;-83
2021/06/06 04:57:04;;;;;;;667.17;544.70;;;;;;;;;;5045093;28;20033;-82
2021/06/06 04:59:31;;;;;;;669.35;547.67;;;;;;;;;;5049875;28;20021;-81
2021/06/06 05:01:58;;;;;;;653.75;536.88;;;;;;;;;;5040203;28;20025;-83
2021/06/06 05:04:24;;;;;;;630.40;507.50;;;;;;;;;;5045255;28;20477;-83
2021/06/06 05:06:50;;;;;;;643.78;522.75;;;;;;;;;;5035294;28;20029;-82
2021/06/06 05:09:16;;;;;;;680.35;559.03;;;;;;;;;;5051422;28;20036;-82
2021/06/06 05:11:42;;;;;;;685.53;571.75;;;;;;;;;;5051750;28;20025;-83
2021/06/06 05:14:39;;;;;;;732.15;605.05;;;;;;;;;;5052840;28;20025;-83
2021/06/06 05:17:05;;;;;;;703.75;569.80;;;;;;;;;;5052129;28;20021;-82
2021/06/06 05:19:31;;;;;;;548.13;431.50;;;;;;;;;;5059047;28;20369;-83
2021/06/06 05:21:57;;;;;;;534.30;424.25;;;;;;;;;;5035800;28;20032;-83
2021/06/06 05:24:23;;;;;;;536.25;423.15;;;;;;;;;;5040886;28;20091;-83
2021/06/06 05:27:23;;;;;;;533.47;418.40;;;;;;;;;;5043858;28;20021;-84
2021/06/06 05:29:49;;;;;;;537.97;419.48;;;;;;;;;;5054420;28;20025;-83
2021/06/06 05:32:15;;;;;;;568.83;451.00;;;;;;;;;;5055455;28;20075;-85
2021/06/06 05:34:43;;;;;;;581.47;469.13;;;;;;;;;;5060511;28;20025;-83
2021/06/06 05:37:09;;;;;;;547.17;434.30;;;;;;;;;;5055482;28;20060;-82
2021/06/06 05:39:44;;;;;;;525.42;413.10;;;;;;;;;;5052053;28;20112;-83
2021/06/06 05:42:12;;;;;;;591.55;483.63;;;;;;;;;;5052018;28;20021;-83
2021/06/06 05:44:38;;;;;;;519.10;410.08;;;;;;;;;;5048468;28;20480;-83
2021/06/06 05:47:04;;;;;;;557.15;441.17;;;;;;;;;;5040921;28;20175;-83
2021/06/06 05:49:30;;;;;;;545.30;437.92;;;;;;;;;;5036678;28;20029;-82
2021/06/06 05:51:56;;;;;;;642.95;527.53;;;;;;;;;;5045561;28;20025;-83
2021/06/06 05:54:22;;;;;;;708.88;594.47;;;;;;;;;;5056307;28;20036;-83
2021/06/06 05:56:48;;;;;;;525.33;422.67;;;;;;;;;;5038959;28;20087;-84
2021/06/06 05:59:15;;;;;;;527.60;419.95;;;;;;;;;;5054789;28;20465;-83
2021/06/06 06:01:47;;;;;;;541.15;433.02;;;;;;;;;;5054742;28;20029;-83
2021/06/06 06:04:13;;;;;;;904.33;810.58;;;;;;;;;;5055663;28;20025;-84
2021/06/06 06:06:39;;;;;;;527.60;422.13;;;;;;;;;;5054640;28;20031;-83
2021/06/06 06:09:05;;;;;;;638.78;529.08;;;;;;;;;;5054162;28;21844;-83
2021/06/06 06:11:31;;;;;;;725.75;611.45;;;;;;;;;;5041488;28;20172;-82
2021/06/06 06:14:00;;;;;;;585.25;471.30;;;;;;;;;;5054680;28;20564;-83
2021/06/06 06:16:28;;;;;;;606.50;491.38;;;;;;;;;;5050121;28;20025;-84
2021/06/06 06:18:54;;;;;;;569.92;456.58;;;;;;;;;;5065353;28;20032;-84
2021/06/06 06:21:21;;;;;;;579.40;468.48;;;;;;;;;;5054611;28;20029;-82
2021/06/06 06:23:47;;;;;;;591.72;482.33;;;;;;;;;;5055991;28;20104;-84
2021/06/06 06:29:16;;;;;;;735.53;622.08;;;;;;;;;;5054359;28;20032;-83
2021/06/06 06:31:43;;;;;;;612.45;494.65;;;;;;;;;;5053550;28;20112;-83
2021/06/06 06:34:09;;;;;;;665.92;547.92;;;;;;;;;;5052473;28;20028;-84
2021/06/06 06:36:35;;;;;;;552.05;446.40;;;;;;;;;;5037548;28;20392;-82
2021/06/06 06:39:01;;;;;;;715.50;602.40;;;;;;;;;;5035534;28;20373;-84
2021/06/06 06:41:45;;;;;;;769.55;680.10;;;;;;;;;;5048910;28;20137;-81
2021/06/06 06:44:11;;;;;;;573.20;454.40;;;;;;;;;;5054344;28;20488;-82
2021/06/06 06:46:37;;;;;;;592.28;473.70;;;;;;;;;;5039582;28;20130;-81
2021/06/06 06:49:03;;;;;;;720.58;606.58;;;;;;;;;;5053954;28;20744;-82
2021/06/06 06:51:29;;;;;;;566.17;455.48;;;;;;;;;;5057192;28;20033;-83
2021/06/06 06:54:07;;;;;;;581.60;470.13;;;;;;;;;;5043578;28;20048;-84
2021/06/06 06:56:33;;;;;;;590.88;473.05;;;;;;;;;;5052319;28;20025;-81
2021/06/06 06:59:00;;;;;;;564.35;454.75;;;;;;;;;;5050639;28;20017;-83
2021/06/06 07:01:27;;;;;;;719.50;601.97;;;;;;;;;;5053628;28;20053;-83
2021/06/06 07:03:54;;;;;;;653.10;532.85;;;;;;;;;;5055056;28;20120;-83
2021/06/06 07:06:51;;;;;;;589.13;484.77;;;;;;;;;;5049606;28;20436;-83
2021/06/06 07:09:17;;;;;;;621.58;506.80;;;;;;;;;;5052281;28;20060;-84
2021/06/06 07:11:44;;;;;;;611.55;492.92;;;;;;;;;;5053516;28;20388;-84
2021/06/06 07:14:10;;;;;;;777.10;687.83;;;;;;;;;;5045291;28;20022;-82
2021/06/06 07:16:36;;;;;;;659.33;547.20;;;;;;;;;;5052736;28;20032;-82
2021/06/06 07:19:27;;;;;;;577.42;467.23;;;;;;;;;;5032209;28;20021;-84
2021/06/06 07:21:52;;;;;;;586.35;475.83;;;;;;;;;;5053231;28;20029;-84
2021/06/06 07:24:18;;;;;;;637.53;522.45;;;;;;;;;;5046506;28;20155;-84
2021/06/06 07:26:46;;;;;;;664.88;547.40;;;;;;;;;;5050257;28;20029;-84
2021/06/06 07:29:13;;;;;;;584.40;476.70;;;;;;;;;;5050129;28;20089;-84
2021/06/06 07:31:42;;;;;;;694.90;587.92;;;;;;;;;;5061087;28;20112;-81
2021/06/06 07:34:08;;;;;;;563.50;456.83;;;;;;;;;;5051867;28;20052;-82
2021/06/06 07:36:34;;;;;;;585.13;478.92;;;;;;;;;;5054485;28;20028;-85
2021/06/06 07:39:01;;;;;;;608.00;501.17;;;;;;;;;;5047431;28;20026;-82
2021/06/06 07:41:27;;;;;;;618.97;512.17;;;;;;;;;;5050967;28;20037;-83
2021/06/06 07:44:20;;;;;;;555.25;452.27;;;;;;;;;;5052704;28;20025;-84
2021/06/06 07:46:46;;;;;;;580.88;472.05;;;;;;;;;;5039020;28;20515;-85
2021/06/06 07:49:12;;;;;;;566.38;460.17;;;;;;;;;;5052140;28;20029;-84
2021/06/06 07:51:38;;;;;;;536.90;438.42;;;;;;;;;;5053170;28;20033;-84
2021/06/06 07:54:06;;;;;;;555.20;451.90;;;;;;;;;;5054327;28;20021;-83
2021/06/06 07:56:32;;;;;;;609.85;501.45;;;;;;;;;;5052581;28;20024;-84
2021/06/06 07:58:58;;;;;;;536.95;440.98;;;;;;;;;;5033838;28;20417;-83
2021/06/06 08:01:24;;;;;;;529.80;431.20;;;;;;;;;;5053918;28;20059;-86
2021/06/06 08:03:50;;;;;;;521.08;422.27;;;;;;;;;;5054123;28;20369;-85
2021/06/06 08:06:17;;;;;;;522.85;427.08;;;;;;;;;;5052413;28;20036;-85
2021/06/06 08:15:18;;;;;;;521.17;422.75;;;;;;;;;;5053193;28;20047;-85
2021/06/06 08:17:44;;;;;;;519.20;418.30;;;;;;;;;;5048491;28;20116;-83
2021/06/06 08:20:12;;;;;;;522.80;429.17;;;;;;;;;;5053141;28;20033;-85
2021/06/06 08:22:38;;;;;;;523.80;430.48;;;;;;;;;;5049227;28;20029;-84
2021/06/06 08:25:08;;;;;;;529.28;435.23;;;;;;;;;;5057234;28;20033;-84
2021/06/06 08:27:43;;;;;;;530.65;436.20;;;;;;;;;;5051754;28;20032;-84
2021/06/06 08:30:11;;;;;;;522.13;426.15;;;;;;;;;;5053123;28;20111;-85
2021/06/06 08:32:37;;;;;;;560.33;453.58;;;;;;;;;;5051448;28;20048;-82
2021/06/06 08:35:04;;;;;;;522.03;432.92;;;;;;;;;;5044713;28;20029;-84
2021/06/06 08:37:30;;;;;;;521.88;431.88;;;;;;;;;;5051259;28;20070;-84
2021/06/06 08:40:02;;;;;;;540.35;446.60;;;;;;;;;;5049104;28;20044;-85
2021/06/06 08:42:31;;;;;;;550.38;450.30;;;;;;;;;;5051357;28;20020;-85
2021/06/06 08:45:07;;;;;;;523.05;429.33;;;;;;;;;;5046128;28;20037;-84
2021/06/06 08:47:33;;;;;;;525.58;432.80;;;;;;;;;;5049650;28;20116;-82
2021/06/06 08:50:16;;;;;;;524.33;437.70;;;;;;;;;;5048247;28;20028;-84
2021/06/06 08:53:01;;;;;;;520.10;428.60;;;;;;;;;;5050283;28;20024;-82
2021/06/06 08:55:30;;;;;;;533.53;438.38;;;;;;;;;;5052011;28;20472;-84
2021/06/06 08:58:00;;;;;;;521.55;429.75;;;;;;;;;;5051205;28;20044;-83
2021/06/06 09:06:58;;;;;;;527.42;433.80;;;;;;;;;;5043943;28;20032;-81
2021/06/06 09:09:27;;;;;;;532.50;433.88;;;;;;;;;;5043946;28;20025;-85
2021/06/06 09:11:57;;;;;;;530.17;436.50;;;;;;;;;;5066771;28;20037;-83
2021/06/06 09:14:23;;;;;;;;;;;;;;;;;;5049457;28;20066;-85
2021/06/06 09:17:26;;;;;;;523.97;423.92;;;;;;;;;;5039712;28;20003;-85
2021/06/06 09:19:55;;;;;;;530.38;431.05;;;;;;;;;;5050510;28;20459;-86
2021/06/06 09:22:33;;;;;;;520.00;426.48;;;;;;;;;;5033448;28;20052;-85
2021/06/06 09:25:10;;;;;;;529.55;439.55;;;;;;;;;;5053140;28;20025;-82
2021/06/06 09:27:45;;;;;;;519.85;432.15;;;;;;;;;;5040690;28;20477;-86
2021/06/06 09:30:18;;;;;;;533.83;445.27;;;;;;;;;;5039395;28;20029;-85
2021/06/06 09:32:44;;;;;;;534.33;445.52;;;;;;;;;;5041399;28;20024;-86
2021/06/06 09:35:23;;;;;;;556.70;465.80;;;;;;;;;;5047526;28;20025;-85
2021/06/06 09:38:06;;;;;;;523.00;433.95;;;;;;;;;;5046710;28;20111;-82
2021/06/06 09:40:37;;;;;;;521.22;430.63;;;;;;;;;;5049111;28;20453;-83
2021/06/06 09:43:04;;;;;;;523.55;427.45;;;;;;;;;;5046547;28;20030;-84
2021/06/06 09:45:35;;;;;;;527.03;439.52;;;;;;;;;;5061404;28;20057;-82
2021/06/06 09:48:16;;;;;;;530.13;439.02;;;;;;;;;;5060916;28;20029;-86
2021/06/06 09:50:46;;;;;;;548.55;454.13;;;;;;;;;;5051160;28;20044;-84
2021/06/06 09:53:27;;;;;;;535.80;451.17;;;;;;;;;;5048890;28;20086;-85
2021/06/06 09:55:53;;;;;;;;;;;;;;;;;;5043949;28;20030;-84
2021/06/06 09:58:37;;;;;;;559.42;457.17;;;;;;;;;;5031473;28;19912;-82
2021/06/06 10:01:21;;;;;;;532.90;444.05;;;;;;;;;;5032858;28;20021;-83
2021/06/06 10:03:52;;;;;;;563.25;473.42;;;;;;;;;;5063891;28;20035;-83
2021/06/06 10:06:24;;;;;;;541.55;450.15;;;;;;;;;;5035316;28;20064;-86
2021/06/06 10:09:14;;;;;;;563.38;484.17;;;;;;;;;;5072398;28;20072;-85
2021/06/06 10:11:49;;;;;;;552.50;467.08;;;;;;;;;;5044775;28;20435;-86
2021/06/06 10:14:17;;;;;;;551.35;471.08;;;;;;;;;;5049444;28;20181;-86
2021/06/06 10:16:45;;;;;;;558.17;483.23;;;;;;;;;;5035536;28;20020;-84
2021/06/06 10:19:29;;;;;;;554.42;472.73;;;;;;;;;;5053968;28;20100;-84
2021/06/06 10:21:59;;;;;;;607.25;518.35;;;;;;;;;;5052124;28;20025;-85
2021/06/06 10:24:31;;;;;;;529.75;452.42;;;;;;;;;;5049198;28;20032;-86
2021/06/06 10:26:59;;;;;;;535.67;461.65;;;;;;;;;;5055744;28;20120;-87
2021/06/06 10:29:40;;;;;;;552.38;481.90;;;;;;;;;;5053103;28;20078;-87
2021/06/06 10:32:15;;;;;;;548.90;471.85;;;;;;;;;;5053648;28;20094;-81
2021/06/06 10:34:41;;;;;;;577.03;504.13;;;;;;;;;;5058663;28;20025;-81
2021/06/06 10:37:09;;;;;;;567.25;498.77;;;;;;;;;;5055006;28;20028;-85
2021/06/06 10:39:54;;;;;;;584.97;512.45;;;;;;;;;;5051926;28;20028;-86
2021/06/06 10:42:24;;;;;;;619.33;544.50;;;;;;;;;;5054420;28;20465;-85
2021/06/06 10:44:50;;;;;;;;;;;;;;;;;;5052014;28;20045;-84
2021/06/06 10:47:31;;;;;;;789.67;689.63;;;;;;;;;;5055548;28;20402;-82
2021/06/06 10:50:24;;;;;;;544.83;467.55;;;;;;;;;;5051415;28;20040;-85
2021/06/06 10:52:51;;;;;;;552.67;472.70;;;;;;;;;;5050227;28;20067;-86
2021/06/06 10:55:31;;;;;;;578.30;506.40;;;;;;;;;;5051719;28;20664;-83
2021/06/06 10:58:10;;;;;;;602.00;533.15;;;;;;;;;;5035163;28;20056;-84
2021/06/06 11:00:55;;;;;;;617.10;543.15;;;;;;;;;;5047443;28;20163;-81
2021/06/06 11:03:24;;;;;;;637.38;566.42;;;;;;;;;;5050245;28;20032;-84
2021/06/06 11:05:52;;;;;;;620.33;552.50;;;;;;;;;;5054334;28;20036;-84
2021/06/06 11:08:36;;;;;;;545.42;485.45;;;;;;;;;;5047034;28;20029;-82
2021/06/06 11:11:26;;;;;;;560.35;499.45;;;;;;;;;;5055844;28;20357;-87
2021/06/06 11:13:54;;;;;;;586.13;523.10;;;;;;;;;;5044159;28;20025;-85
2021/06/06 11:16:22;;;;;;;604.05;540.67;;;;;;;;;;5060644;28;20440;-83
2021/06/06 11:18:50;;;;;;;648.33;583.08;;;;;;;;;;5043639;28;20028;-86
2021/06/06 11:21:17;;;;;;;766.45;692.53;;;;;;;;;;5053403;28;20504;-86
2021/06/06 11:24:14;;;;;;;696.47;628.75;;;;;;;;;;5049190;28;20029;-79
2021/06/06 11:26:44;;;;;;;728.65;658.28;;;;;;;;;;5052174;28;20520;-80
2021/06/06 11:29:12;;;;;;;1003.63;912.85;;;;;;;;;;5053967;28;20105;-81
2021/06/06 11:31:42;;;;;;;638.40;575.15;;;;;;;;;;5042747;28;20034;-84
2021/06/06 11:37:32;;;;;;;656.63;590.88;;;;;;;;;;5054854;28;20063;-83
2021/06/06 11:40:00;;;;;;;759.20;685.25;;;;;;;;;;5049382;28;20052;-85
2021/06/06 11:42:31;;;;;;;648.00;584.40;;;;;;;;;;5039627;28;20475;-84
2021/06/06 11:44:59;;;;;;;697.53;630.28;;;;;;;;;;5052257;28;21705;-83
2021/06/06 11:47:45;;;;;;;728.25;659.90;;;;;;;;;;5051866;28;20044;-80
2021/06/06 11:50:14;;;;;;;730.40;662.00;;;;;;;;;;5066612;28;20128;-83
2021/06/06 11:52:42;;;;;;;809.67;735.75;;;;;;;;;;5052280;28;20021;-79
2021/06/06 11:55:29;;;;;;;645.92;584.10;;;;;;;;;;5053410;28;20029;-83
2021/06/06 11:58:19;;;;;;;653.08;590.22;;;;;;;;;;5052920;28;20061;-81
2021/06/06 12:00:45;;;;;;;635.38;572.97;;;;;;;;;;5046346;28;20468;-84
2021/06/06 12:03:13;;;;;;;658.65;594.75;;;;;;;;;;5041069;28;20553;-82
2021/06/06 12:05:50;;;;;;;715.85;648.03;;;;;;;;;;5054256;28;20025;-82
2021/06/06 12:08:18;;;;;;;731.75;662.40;;;;;;;;;;5052038;28;20127;-80
2021/06/06 12:10:53;;;;;;;713.83;645.92;;;;;;;;;;5050968;28;20043;-84
2021/06/06 12:13:22;;;;;;;687.03;621.53;;;;;;;;;;5051968;28;20024;-81
2021/06/06 12:15:48;;;;;;;744.58;676.50;;;;;;;;;;5047773;28;20030;-80
2021/06/06 12:18:26;;;;;;;791.20;721.67;;;;;;;;;;5050079;28;20470;-81
2021/06/06 12:21:01;;;;;;;744.25;679.55;;;;;;;;;;5046342;28;20855;-84
2021/06/06 12:23:32;;;;;;;847.38;776.13;;;;;;;;;;5049138;28;20040;-84
2021/06/06 12:26:07;;;;;;;896.33;822.63;;;;;;;;;;5045921;28;21783;-80
2021/06/06 12:28:44;;;;;;;793.33;727.65;;;;;;;;;;5049400;28;20025;-87
2021/06/06 12:31:29;;;;;;;826.42;759.35;;;;;;;;;;5050296;28;20074;-82
2021/06/06 12:33:56;;;;;;;826.95;760.53;;;;;;;;;;5051038;28;20033;-80
2021/06/06 12:36:25;;;;;;;816.38;750.28;;;;;;;;;;5048147;28;20024;-77
2021/06/06 12:38:55;;;;;;;773.85;710.33;;;;;;;;;;5038335;28;20021;-77
2021/06/06 12:41:21;;;;;;;780.08;716.17;;;;;;;;;;5034885;28;20033;-76
2021/06/06 12:43:51;;;;;;;793.90;728.55;;;;;;;;;;5054270;28;20061;-75
2021/06/06 12:46:17;;;;;;;808.22;740.78;;;;;;;;;;5039085;28;20467;-76
2021/06/06 12:49:04;;;;;;;778.30;712.80;;;;;;;;;;5054641;28;20039;-76
2021/06/06 12:51:40;;;;;;;783.47;717.85;;;;;;;;;;5058826;28;20554;-76
2021/06/06 12:54:20;;;;;;;758.13;693.97;;;;;;;;;;5030558;28;20025;-77
2021/06/06 12:56:48;;;;;;;753.63;690.00;;;;;;;;;;5042609;28;20618;-76
2021/06/06 12:59:28;;;;;;;1101.38;999.90;;;;;;;;;;5056996;28;20044;-79
2021/06/06 13:02:14;;;;;;;737.00;672.83;;;;;;;;;;5039456;28;20084;-78
2021/06/06 13:04:40;;;;;;;698.97;637.45;;;;;;;;;;5033533;28;20452;-76
2021/06/06 13:07:34;;;;;;;690.15;628.83;;;;;;;;;;5054014;28;20067;-77
2021/06/06 13:10:00;;;;;;;682.65;622.20;;;;;;;;;;5042959;28;20064;-77
2021/06/06 13:12:26;;;;;;;680.45;620.20;;;;;;;;;;5039054;28;20025;-76
2021/06/06 13:15:00;;;;;;;687.33;626.92;;;;;;;;;;5039155;28;20124;-75
2021/06/06 13:17:54;;;;;;;680.00;619.78;;;;;;;;;;5039961;28;20700;-76
2021/06/06 13:20:32;;;;;;;687.28;627.13;;;;;;;;;;5034899;28;20037;-78
2021/06/06 13:22:58;;;;;;;693.33;633.05;;;;;;;;;;5037681;28;20024;-76
2021/06/06 13:25:27;;;;;;;713.25;652.42;;;;;;;;;;5045778;28;20056;-76
2021/06/06 13:27:58;;;;;;;705.53;645.15;;;;;;;;;;5039682;28;20029;-77
2021/06/06 13:30:27;;;;;;;696.67;636.63;;;;;;;;;;5040788;28;20057;-77
2021/06/06 13:32:56;;;;;;;696.45;636.35;;;;;;;;;;5039263;28;20056;-78
2021/06/06 13:35:22;;;;;;;693.67;633.80;;;;;;;;;;5040605;28;20079;-76
2021/06/06 13:37:48;;;;;;;685.10;625.35;;;;;;;;;;5033595;28;20029;-78
2021/06/06 13:40:18;;;;;;;675.92;616.38;;;;;;;;;;5055083;28;20116;-77
2021/06/06 13:42:44;;;;;;;674.80;614.88;;;;;;;;;;5046455;28;20025;-77
2021/06/06 13:45:10;;;;;;;678.00;618.35;;;;;;;;;;5048930;28;20033;-78
2021/06/06 13:47:36;;;;;;;692.75;632.63;;;;;;;;;;5045295;28;20068;-76
2021/06/06 13:50:05;;;;;;;694.70;634.42;;;;;;;;;;5045817;28;20051;-77
2021/06/06 13:52:31;;;;;;;690.50;630.55;;;;;;;;;;5056887;28;20538;-76
2021/06/06 13:54:57;;;;;;;686.67;626.63;;;;;;;;;;5044111;28;20029;-76
2021/06/06 13:57:23;;;;;;;687.80;627.72;;;;;;;;;;5039913;28;20120;-79
2021/06/06 13:59:49;;;;;;;688.67;628.25;;;;;;;;;;5048044;28;20022;-77
2021/06/06 14:02:18;;;;;;;681.90;621.58;;;;;;;;;;5056756;28;20017;-77
2021/06/06 14:04:44;;;;;;;670.70;610.97;;;;;;;;;;5048911;28;20025;-76
2021/06/06 14:07:10;;;;;;;660.53;601.05;;;;;;;;;;5041628;28;20272;-76
2021/06/06 14:09:36;;;;;;;651.90;592.55;;;;;;;;;;5046658;28;20028;-76
2021/06/06 14:12:04;;;;;;;652.47;592.97;;;;;;;;;;5036851;28;20029;-78
2021/06/06 14:14:30;;;;;;;649.70;590.50;;;;;;;;;;5047932;28;20037;-81
2021/06/06 14:16:56;;;;;;;641.17;582.15;;;;;;;;;;5046408;28;20044;-75
2021/06/06 14:19:23;;;;;;;634.25;575.20;;;;;;;;;;5043276;28;20036;-76
2021/06/06 14:21:49;;;;;;;632.55;573.78;;;;;;;;;;5047753;28;20034;-77
2021/06/06 14:24:16;;;;;;;633.13;574.13;;;;;;;;;;5049335;28;20033;-78
2021/06/06 14:26:44;;;;;;;631.75;572.65;;;;;;;;;;5042761;28;20025;-75
2021/06/06 14:29:12;;;;;;;632.78;573.75;;;;;;;;;;5043339;28;20029;-76
2021/06/06 14:31:38;;;;;;;619.00;560.42;;;;;;;;;;5044351;28;20052;-77
2021/06/06 14:34:05;;;;;;;624.97;565.97;;;;;;;;;;5051000;28;20071;-76
2021/06/06 14:36:31;;;;;;;621.22;562.38;;;;;;;;;;5062300;28;20025;-76
2021/06/06 14:38:58;;;;;;;617.88;559.25;;;;;;;;;;5037714;28;20033;-75
2021/06/06 14:41:24;;;;;;;612.60;554.10;;;;;;;;;;5041631;28;20424;-76
2021/06/06 14:43:57;;;;;;;613.88;555.22;;;;;;;;;;5056873;28;20506;-76